createdAt,value
2024-04-15T00:01:44.189Z,12.8
2024-04-15T00:06:50.301Z,12.8
2024-04-15T00:11:56.413Z,12.8
2024-04-15T00:17:02.510Z,12.5
2024-04-15T00:22:08.636Z,13.1
2024-04-15T00:27:14.752Z,12.5
2024-04-15T00:32:20.860Z,12.5
2024-04-15T00:37:26.968Z,12.5
2024-04-15T00:42:33.083Z,12.8
2024-04-15T00:47:39.191Z,12.1
2024-04-15T00:52:45.327Z,12.5
2024-04-15T00:57:50.446Z,12.5
2024-04-15T01:02:56.575Z,12.5
2024-04-15T01:08:02.667Z,12.1
2024-04-15T01:13:08.800Z,13.1
2024-04-15T01:18:14.904Z,13.1
2024-04-15T01:23:21.024Z,12.5
2024-04-15T01:28:27.150Z,12.1
2024-04-15T01:33:33.265Z,12.5
2024-04-15T01:38:39.397Z,12.1
2024-04-15T01:43:45.501Z,12.1
2024-04-15T01:48:51.639Z,12.5
2024-04-15T01:53:57.743Z,12.1
2024-04-15T01:59:03.866Z,12.8
2024-04-15T02:04:08.989Z,12.5
2024-04-15T02:09:15.122Z,12.1
2024-04-15T02:14:21.241Z,12.5
2024-04-15T02:19:27.361Z,12.5
2024-04-15T02:24:33.483Z,12.1
2024-04-15T02:29:39.591Z,12.1
2024-04-15T02:34:45.699Z,12.1
2024-04-15T02:39:51.836Z,12.5
2024-04-15T02:44:57.950Z,12.1
2024-04-15T02:50:04.062Z,12.1
2024-04-15T02:55:10.194Z,13.1
2024-04-15T03:00:16.303Z,11.8
2024-04-15T03:05:22.408Z,12.1
2024-04-15T03:10:27.560Z,12.1
2024-04-15T03:15:33.685Z,12.5
2024-04-15T03:20:39.804Z,12.1
2024-04-15T03:25:45.905Z,12.5
2024-04-15T03:30:52.010Z,11.8
2024-04-15T03:35:58.143Z,12.1
2024-04-15T03:41:04.258Z,11.8
2024-04-15T03:46:10.374Z,12.5
2024-04-15T03:51:16.490Z,11.8
2024-04-15T03:56:22.622Z,12.5
2024-04-15T04:01:28.739Z,11.8
2024-04-15T04:06:34.850Z,11.8
2024-04-15T04:11:40.954Z,11.5
2024-04-15T04:16:46.103Z,11.8
2024-04-15T04:21:52.234Z,11.5
2024-04-15T04:26:58.343Z,11.8
2024-04-15T04:32:04.447Z,11.8
2024-04-15T04:37:10.569Z,11.5
2024-04-15T04:42:16.688Z,12.1
2024-04-15T04:47:22.810Z,11.5
2024-04-15T04:52:28.927Z,12.1
2024-04-15T04:57:35.040Z,11.8
2024-04-15T05:02:41.164Z,11.8
2024-04-15T05:07:47.272Z,11.8
2024-04-15T05:12:53.413Z,11.5
2024-04-15T05:17:59.510Z,11.8
2024-04-15T05:23:04.654Z,11.2
2024-04-15T05:28:10.772Z,11.8
2024-04-15T05:33:16.880Z,11.2
2024-04-15T05:38:22.996Z,11.5
2024-04-15T05:43:29.108Z,11.8
2024-04-15T05:48:35.218Z,11.8
2024-04-15T05:53:41.356Z,11.5
2024-04-15T05:58:47.455Z,11.5
2024-04-15T06:03:53.582Z,12.1
2024-04-15T06:08:59.691Z,12.1
2024-04-15T06:14:05.794Z,12.1
2024-04-15T06:19:11.918Z,12.1
2024-04-15T06:24:18.026Z,11.8
2024-04-15T06:29:23.162Z,11.5
2024-04-15T06:34:29.278Z,11.5
2024-04-15T06:39:35.372Z,12.1
2024-04-15T06:44:41.500Z,12.1
2024-04-15T06:49:47.612Z,11.8
2024-04-15T06:54:53.735Z,11.5
2024-04-15T06:59:59.848Z,11.5
2024-04-15T07:05:05.960Z,11.2
2024-04-15T07:10:12.086Z,11.8
2024-04-15T07:15:18.171Z,12.5
2024-04-15T07:20:24.296Z,11.5
2024-04-15T07:25:30.404Z,11.5
2024-04-15T07:30:36.549Z,11.5
2024-04-15T07:35:41.625Z,11.8
2024-04-15T07:40:47.734Z,12.1
2024-04-15T07:45:53.852Z,12.1
2024-04-15T07:50:59.974Z,12.1
2024-04-15T07:56:06.064Z,12.1
2024-04-15T08:01:12.250Z,11.5
2024-04-15T08:06:18.295Z,11.8
2024-04-15T08:11:24.411Z,11.8
2024-04-15T08:16:30.530Z,11.5
2024-04-15T08:21:36.630Z,12.1
2024-04-15T08:26:42.741Z,11.8
2024-04-15T08:31:48.851Z,12.1
2024-04-15T08:36:54.966Z,11.8
2024-04-15T08:42:00.088Z,11.8
2024-04-15T08:47:06.188Z,11.5
2024-04-15T08:52:12.312Z,12.1
2024-04-15T08:57:18.440Z,11.5
2024-04-15T09:02:24.538Z,12.5
2024-04-15T09:07:30.655Z,11.8
2024-04-15T09:12:36.799Z,11.8
2024-04-15T09:17:42.866Z,12.1
2024-04-15T09:22:49.009Z,11.8
2024-04-15T09:27:55.084Z,11.8
2024-04-15T09:33:01.202Z,12.1
2024-04-15T09:38:07.308Z,12.1
2024-04-15T09:43:13.447Z,12.1
2024-04-15T09:48:18.570Z,12.1
2024-04-15T09:53:24.695Z,12.1
2024-04-15T09:58:30.769Z,11.8
2024-04-15T10:03:36.875Z,12.5
2024-04-15T10:08:42.977Z,12.8
2024-04-15T10:13:49.096Z,11.8
2024-04-15T10:18:55.225Z,12.5
2024-04-15T10:24:01.319Z,12.5
2024-04-15T10:29:07.445Z,12.5
2024-04-15T10:34:13.539Z,12.5
2024-04-15T10:39:19.775Z,12.8
2024-04-15T10:44:25.771Z,12.1
2024-04-15T10:49:31.865Z,13.1
2024-04-15T10:54:37.006Z,12.1
2024-04-15T10:59:43.118Z,12.5
2024-04-15T11:04:49.222Z,12.8
2024-04-15T11:09:55.333Z,12.5
2024-04-15T11:15:01.452Z,12.8
2024-04-15T11:20:07.558Z,12.5
2024-04-15T11:25:12.803Z,12.8
2024-04-15T11:30:18.790Z,13.1
2024-04-15T11:35:24.903Z,12.8
2024-04-15T11:40:31.016Z,12.8
2024-04-15T11:45:37.116Z,12.8
2024-04-15T11:50:43.214Z,13.4
2024-04-15T11:55:49.337Z,12.8
2024-04-15T12:00:55.424Z,13.4
2024-04-15T12:06:01.528Z,13.1
2024-04-15T12:11:07.651Z,13.8
2024-04-15T12:16:13.757Z,13.1
2024-04-15T12:21:19.849Z,13.1
2024-04-15T12:26:25.979Z,13.8
2024-04-15T12:31:31.101Z,13.1
2024-04-15T12:36:37.194Z,13.1
2024-04-15T12:41:43.301Z,13.4
2024-04-15T12:46:49.409Z,13.4
2024-04-15T12:51:55.515Z,13.4
2024-04-15T12:57:01.616Z,13.4
2024-04-15T13:02:07.748Z,13.4
2024-04-15T13:07:13.839Z,13.4
2024-04-15T13:12:19.954Z,13.4
2024-04-15T13:17:26.056Z,13.8
2024-04-15T13:22:32.191Z,13.8
2024-04-15T13:27:38.286Z,14.7
2024-04-15T13:32:44.384Z,14.1
2024-04-15T13:37:49.525Z,14.1
2024-04-15T13:42:55.610Z,14.1
2024-04-15T13:48:01.742Z,13.4
2024-04-15T13:53:07.839Z,13.8
2024-04-15T13:58:13.948Z,14.1
2024-04-15T14:03:20.053Z,14.1
2024-04-15T14:08:26.163Z,13.8
2024-04-15T14:13:32.274Z,14.1
2024-04-15T14:18:38.396Z,14.1
2024-04-15T14:23:44.500Z,14.4
2024-04-15T14:28:50.611Z,14.4
2024-04-15T14:33:56.720Z,14.4
2024-04-15T14:39:02.819Z,14.4
2024-04-15T14:44:07.938Z,14.4
2024-04-15T14:49:14.079Z,13.8
2024-04-15T14:54:20.167Z,14.7
2024-04-15T14:59:26.337Z,14.7
2024-04-15T15:04:32.385Z,14.4
2024-04-15T15:09:38.496Z,13.8
2024-04-15T15:14:44.618Z,14.1
2024-04-15T15:19:50.726Z,14.1
2024-04-15T15:24:56.830Z,14.1
2024-04-15T15:30:02.962Z,14.1
2024-04-15T15:35:09.058Z,14.4
2024-04-15T15:40:15.174Z,14.1
2024-04-15T15:45:21.277Z,14.1
2024-04-15T15:50:26.405Z,14.4
2024-04-15T15:55:32.505Z,14.1
2024-04-15T16:00:38.610Z,14.1
2024-04-15T16:05:44.727Z,14.4
2024-04-15T16:10:50.851Z,14.1
2024-04-15T16:15:56.956Z,14.4
2024-04-15T16:21:03.065Z,14.4
2024-04-15T16:26:09.162Z,14.4
2024-04-15T16:31:15.295Z,14.1
2024-04-15T16:36:21.389Z,14.1
2024-04-15T16:41:27.513Z,14.4
2024-04-15T16:46:33.609Z,13.8
2024-04-15T16:51:39.709Z,14.1
2024-04-15T16:56:44.846Z,14.1
2024-04-15T17:01:50.973Z,13.8
2024-04-15T17:06:57.062Z,13.8
2024-04-15T17:12:03.185Z,14.4
2024-04-15T17:17:09.342Z,14.1
2024-04-15T17:22:15.417Z,14.4
2024-04-15T17:27:21.509Z,13.8
2024-04-15T17:32:27.607Z,14.1
2024-04-15T17:37:33.723Z,13.8
2024-04-15T17:42:39.820Z,13.8
2024-04-15T17:47:45.947Z,14.1
2024-04-15T17:52:52.040Z,14.1
2024-04-15T17:57:58.173Z,14.4
2024-04-15T18:03:03.286Z,13.8
2024-04-15T18:08:09.388Z,13.8
2024-04-15T18:13:15.522Z,13.4
2024-04-15T18:18:21.642Z,14.4
2024-04-15T18:23:27.745Z,14.4
2024-04-15T18:28:33.842Z,14.1
2024-04-15T18:33:39.976Z,13.8
2024-04-15T18:38:46.055Z,14.1
2024-04-15T18:43:52.174Z,13.4
2024-04-15T18:48:58.286Z,13.4
2024-04-15T18:54:04.384Z,13.8
2024-04-15T19:04:16.596Z,13.8
2024-04-15T19:09:21.745Z,13.4
2024-04-15T19:14:27.859Z,13.4
2024-04-15T19:19:33.950Z,13.8
2024-04-15T19:24:40.064Z,13.8
2024-04-15T19:29:46.185Z,13.1
2024-04-15T19:39:58.551Z,13.1
2024-04-15T19:45:04.694Z,13.4
2024-04-15T19:50:10.896Z,13.1
2024-04-15T19:55:16.766Z,13.8
2024-04-15T20:00:23.107Z,13.8
2024-04-15T20:05:29.386Z,13.1
2024-04-15T20:10:35.421Z,13.1
2024-04-15T20:15:40.538Z,12.5
2024-04-15T20:20:46.694Z,12.8
2024-04-15T20:25:52.803Z,12.8
2024-04-15T20:30:58.975Z,12.8
2024-04-15T20:36:04.688Z,13.8
2024-04-15T20:41:10.815Z,12.8
2024-04-15T20:46:16.968Z,13.4
2024-04-15T20:51:23.083Z,12.5
2024-04-15T20:56:29.377Z,12.8
2024-04-15T21:01:35.351Z,12.8
2024-04-15T21:06:41.440Z,12.8
2024-04-15T21:11:47.820Z,12.8
2024-04-15T21:16:54.049Z,12.5
2024-04-15T21:21:58.851Z,12.5
2024-04-15T21:27:05.020Z,12.8
2024-04-15T21:32:10.979Z,12.1
2024-04-15T21:37:17.343Z,12.8
2024-04-15T21:42:23.322Z,12.5
2024-04-15T21:47:29.626Z,12.5
2024-04-15T21:52:35.597Z,12.5
2024-04-15T21:57:41.633Z,12.5
2024-04-15T22:02:47.814Z,12.1
2024-04-15T22:07:53.811Z,12.5
2024-04-15T22:12:59.891Z,11.8
2024-04-15T22:18:06.021Z,12.1
2024-04-15T22:23:12.219Z,12.5
2024-04-15T22:28:17.404Z,12.1
2024-04-15T22:33:23.473Z,12.1
2024-04-15T22:38:29.556Z,11.8
2024-04-15T22:43:35.607Z,12.5
2024-04-15T22:48:41.728Z,11.8
2024-04-15T22:58:53.952Z,12.1
2024-04-15T23:04:00.138Z,11.8
2024-04-15T23:09:06.193Z,12.1
2024-04-15T23:14:12.430Z,12.1
2024-04-15T23:19:18.464Z,11.5
2024-04-15T23:24:24.553Z,11.5
2024-04-15T23:29:30.689Z,12.5
2024-04-15T23:34:35.804Z,12.5
2024-04-15T23:39:41.953Z,11.8
2024-04-15T23:44:48.120Z,12.1
2024-04-15T23:49:54.168Z,12.5
2024-04-15T23:55:00.460Z,11.5
